Terminal Aerodrome Forecast
Issued by NWS

Home | Current Version | Previous Version | Text Only | Print | Product List | Glossary On
Versions: 1 2 3 4 5 6 7 8 9 10 11 12 13 14 15
000
FTUS46 KSEW 281700
TAFBLI
TAF
KBLI 281720Z 2818/2918 01007KT P6SM SCT003 BKN030
      TEMPO 2818/2821 1/2SM FG OVC001
     FM290000 01007KT P6SM BKN050
     FM290600 01014G22KT P6SM SCT050 BKN130
     FM291200 02018G26KT P6SM SCT130 SCT250=

USA.gov is the U.S. government's official web portal to all federal, state and local government web resources and services.